createdAt,value
2022-12-19T07:14:10.850Z,4.70
2022-12-19T07:16:40.119Z,4.63
2022-12-19T07:19:14.289Z,3.88
2022-12-19T07:21:45.672Z,3.95
2022-12-19T07:24:17.160Z,4.22
2022-12-19T07:26:48.662Z,4.30
2022-12-19T07:29:20.082Z,3.92
2022-12-19T07:31:50.313Z,3.90
2022-12-19T07:34:21.916Z,4.03
2022-12-19T07:36:56.385Z,3.88
2022-12-19T07:39:27.557Z,3.90
2022-12-19T07:42:03.565Z,3.88
2022-12-19T07:44:45.125Z,3.90
2022-12-19T07:47:16.672Z,4.32
2022-12-19T07:49:47.391Z,3.90
2022-12-19T07:52:20.425Z,3.63
2022-12-19T07:54:51.209Z,3.92
2022-12-19T07:57:20.507Z,3.95
2022-12-19T07:59:56.446Z,4.05
2022-12-19T08:02:27.928Z,3.75
2022-12-19T08:05:01.994Z,3.80
2022-12-19T08:07:38.780Z,4.20
2022-12-19T08:10:13.394Z,4.10
2022-12-19T08:12:46.795Z,3.95
2022-12-19T08:15:23.427Z,4.00
2022-12-19T08:17:53.656Z,4.15
2022-12-19T08:20:27.945Z,4.43
2022-12-19T08:23:06.446Z,4.60
2022-12-19T08:25:39.836Z,3.92
2022-12-19T08:28:10.585Z,4.00
2022-12-19T08:30:41.636Z,4.07
2022-12-19T08:33:12.372Z,4.25
2022-12-19T08:35:44.582Z,4.05
2022-12-19T08:38:15.686Z,4.20
2022-12-19T08:40:54.571Z,4.00
2022-12-19T08:43:34.255Z,3.67
2022-12-19T08:46:02.313Z,4.32
2022-12-19T08:48:31.845Z,4.80
2022-12-19T08:51:07.581Z,4.45
2022-12-19T08:53:42.561Z,4.55
2022-12-19T08:56:19.743Z,4.43
2022-12-19T08:58:53.970Z,4.35
2022-12-19T09:01:26.273Z,4.35
2022-12-19T09:05:40.038Z,4.35
2022-12-19T09:07:00.754Z,4.63
2022-12-19T09:09:34.731Z,4.93
2022-12-19T09:12:08.027Z,4.88
2022-12-19T09:14:41.150Z,4.40
2022-12-19T09:17:12.134Z,5.10
2022-12-19T09:19:48.187Z,4.88
2022-12-19T09:22:21.786Z,4.43
2022-12-19T09:24:59.445Z,4.72
2022-12-19T09:27:47.445Z,4.72
2022-12-19T09:30:20.909Z,4.40
2022-12-19T09:32:54.478Z,4.78
2022-12-19T09:35:30.483Z,5.07
2022-12-19T09:38:04.212Z,4.82
2022-12-19T09:41:03.944Z,5.03
2022-12-19T09:44:19.273Z,4.65
2022-12-19T09:47:13.510Z,4.85
2022-12-19T09:52:21.803Z,5.20
2022-12-19T09:55:21.697Z,4.80
2022-12-19T09:57:58.084Z,4.88
2022-12-19T10:00:38.440Z,5.03
2022-12-19T10:03:39.758Z,4.95
2022-12-19T10:07:08.807Z,4.85
2022-12-19T10:10:28.424Z,5.10
2022-12-19T10:12:51.392Z,4.57
2022-12-19T10:15:29.277Z,4.97
2022-12-19T10:18:31.275Z,4.68
2022-12-19T10:21:59.036Z,5.28
2022-12-19T10:24:56.684Z,4.78
2022-12-19T10:27:59.731Z,4.95
2022-12-19T10:30:45.443Z,4.60
2022-12-19T10:33:29.503Z,5.00
2022-12-19T10:38:38.915Z,4.85
2022-12-19T10:41:25.947Z,5.07
2022-12-19T10:44:10.854Z,5.35
2022-12-19T10:46:55.371Z,4.90
2022-12-19T10:49:39.120Z,4.82
2022-12-19T10:52:16.485Z,4.88
2022-12-19T10:54:49.547Z,4.80
2022-12-19T10:57:23.182Z,4.68
2022-12-19T11:00:14.645Z,4.93
2022-12-19T11:03:04.670Z,5.05
2022-12-19T11:05:38.960Z,5.03
2022-12-19T11:08:19.811Z,5.15
2022-12-19T11:12:28.449Z,5.10
2022-12-19T11:29:15.666Z,4.80
2022-12-19T11:29:44.791Z,4.60
2022-12-19T11:29:54.826Z,4.85
2022-12-19T11:30:46.766Z,4.88
2022-12-19T11:32:51.759Z,5.22
2022-12-19T11:35:37.155Z,4.97
2022-12-19T11:38:17.723Z,5.03
2022-12-19T11:41:03.001Z,4.88
2022-12-19T11:44:02.430Z,5.47
2022-12-19T11:46:57.922Z,4.80
2022-12-19T11:49:46.235Z,5.53
2022-12-19T11:55:56.108Z,4.72
2022-12-19T11:58:30.334Z,5.35
2022-12-19T12:01:39.843Z,5.43
2022-12-19T12:04:18.190Z,5.10
2022-12-19T12:06:56.535Z,5.00
2022-12-19T12:14:47.240Z,4.70
2022-12-19T12:22:53.480Z,4.72
2022-12-19T12:29:25.595Z,4.60
2022-12-19T12:31:18.923Z,5.20
2022-12-19T12:31:47.569Z,5.50
2022-12-19T12:31:50.281Z,5.00
2022-12-19T12:35:16.247Z,5.22
2022-12-19T12:35:16.430Z,5.53
2022-12-19T12:39:25.475Z,5.20
2022-12-19T12:42:07.236Z,5.10
2022-12-19T12:44:47.995Z,5.38
2022-12-19T12:47:30.698Z,5.35
2022-12-19T12:50:18.949Z,5.28
2022-12-19T12:52:54.993Z,5.10
2022-12-19T12:55:42.926Z,5.63
2022-12-19T12:58:54.681Z,4.80
2022-12-19T13:01:40.647Z,5.38
2022-12-19T13:04:11.909Z,5.13
2022-12-19T13:07:13.205Z,5.30
2022-12-19T13:09:47.907Z,5.30
2022-12-19T13:12:47.578Z,5.43
2022-12-19T13:15:41.656Z,5.38
2022-12-19T13:18:36.271Z,4.78
2022-12-19T13:21:10.017Z,5.20
2022-12-19T13:23:40.665Z,5.15
2022-12-19T13:26:45.638Z,4.75
2022-12-19T13:29:56.803Z,5.65
2022-12-19T13:32:32.839Z,5.65
2022-12-19T13:36:25.215Z,5.00
2022-12-19T13:40:01.729Z,5.15
2022-12-19T13:41:49.244Z,4.97
2022-12-19T13:44:22.974Z,5.15
2022-12-19T13:46:54.370Z,5.30
2022-12-19T13:49:36.786Z,5.95
2022-12-19T13:52:17.507Z,5.47
2022-12-19T13:54:59.809Z,5.10
2022-12-19T13:57:31.549Z,5.25
2022-12-19T14:00:10.157Z,5.28
2022-12-19T14:02:53.165Z,5.20
2022-12-19T14:06:17.831Z,4.90
2022-12-19T14:08:24.967Z,5.93
2022-12-19T14:11:35.002Z,5.88
2022-12-19T14:14:27.450Z,5.20
2022-12-19T14:17:12.915Z,5.00
2022-12-19T14:20:06.691Z,5.38
2022-12-19T14:22:45.472Z,5.32
2022-12-19T14:28:15.282Z,6.50
2022-12-19T14:28:29.557Z,6.15
2022-12-19T14:31:05.493Z,5.32
2022-12-19T14:34:04.299Z,5.50
2022-12-19T14:36:43.952Z,5.90
2022-12-19T14:39:29.300Z,5.90
2022-12-19T14:43:55.807Z,5.55
2022-12-19T14:54:01.798Z,5.43
2022-12-19T14:54:03.915Z,5.90
2022-12-19T14:54:40.197Z,5.35
2022-12-19T14:58:51.509Z,6.15
2022-12-19T15:01:07.375Z,5.87
2022-12-19T15:03:36.096Z,6.18
2022-12-19T15:07:05.719Z,5.72
2022-12-19T15:11:00.712Z,6.13
2022-12-19T15:13:13.067Z,6.10
2022-12-19T15:15:37.681Z,6.72
2022-12-19T15:18:39.350Z,9.93
2022-12-19T15:21:13.194Z,7.72
2022-12-19T15:23:45.067Z,7.07
2022-12-19T15:26:20.526Z,6.80
2022-12-19T15:28:56.313Z,7.05
2022-12-19T15:31:38.964Z,6.57
2022-12-19T15:34:34.702Z,6.80
2022-12-19T15:37:07.330Z,7.18
2022-12-19T15:39:38.864Z,6.97
2022-12-19T15:42:18.987Z,6.53
2022-12-19T15:44:56.760Z,7.18
2022-12-19T15:47:37.670Z,6.40
2022-12-19T15:50:28.426Z,6.70
2022-12-19T15:52:58.998Z,6.55
2022-12-19T15:55:36.614Z,6.05
2022-12-19T15:58:12.464Z,6.35
2022-12-19T16:00:50.723Z,6.95
2022-12-19T16:03:27.284Z,6.80
2022-12-19T16:06:03.411Z,6.75
2022-12-19T16:08:31.755Z,6.78
2022-12-19T16:11:02.602Z,6.15
2022-12-19T16:13:40.430Z,6.75
2022-12-19T16:16:16.004Z,6.82
2022-12-19T16:18:47.559Z,6.78
2022-12-19T16:21:26.111Z,6.97
2022-12-19T16:26:40.690Z,6.50
2022-12-19T16:29:29.258Z,6.72
2022-12-19T16:32:08.349Z,6.72
2022-12-19T16:34:47.718Z,6.65
2022-12-19T16:37:32.060Z,6.63
2022-12-19T16:40:08.219Z,6.43
2022-12-19T16:42:39.558Z,6.75
2022-12-19T16:45:28.972Z,6.45
2022-12-19T16:48:16.876Z,7.05
2022-12-19T16:50:55.033Z,6.85
2022-12-19T16:53:30.871Z,6.93
2022-12-19T16:56:04.800Z,7.20
2022-12-19T16:58:43.267Z,7.00
2022-12-19T17:01:15.509Z,6.85
2022-12-19T17:03:48.048Z,7.13
2022-12-19T17:06:18.536Z,7.05
2022-12-19T17:08:46.604Z,7.00
2022-12-19T17:11:17.994Z,6.70
2022-12-19T17:13:56.142Z,6.65
2022-12-19T17:16:26.150Z,7.18
2022-12-19T17:19:01.150Z,7.38
2022-12-19T17:21:29.071Z,7.25
2022-12-19T17:23:59.631Z,6.70
2022-12-19T17:26:27.558Z,6.47
2022-12-19T17:29:00.593Z,6.60
2022-12-19T17:31:38.180Z,7.00
2022-12-19T17:34:17.570Z,7.13
2022-12-19T17:36:45.822Z,7.18
2022-12-19T17:39:26.559Z,6.75
2022-12-19T17:42:17.196Z,6.78
2022-12-19T17:44:45.268Z,7.43
2022-12-19T17:47:17.308Z,6.78
2022-12-19T17:49:48.608Z,7.22
2022-12-19T17:52:22.633Z,7.88
2022-12-19T17:54:52.913Z,6.95
2022-12-19T17:57:37.313Z,7.55
2022-12-19T18:00:11.592Z,7.13
2022-12-19T18:02:53.110Z,7.15
2022-12-19T18:05:30.871Z,7.00
2022-12-19T18:08:24.837Z,7.18
2022-12-19T18:11:09.005Z,7.00
2022-12-19T18:13:40.273Z,7.05
2022-12-19T18:16:24.687Z,7.20
2022-12-19T18:19:00.422Z,6.80
2022-12-19T18:21:36.199Z,6.82
2022-12-19T18:24:10.781Z,7.40
2022-12-19T18:26:49.595Z,7.35
2022-12-19T18:29:22.929Z,6.70
2022-12-19T18:32:01.860Z,7.07
2022-12-19T18:34:38.286Z,6.95
2022-12-19T18:37:28.436Z,7.05
2022-12-19T18:40:04.144Z,7.15
2022-12-19T18:42:39.867Z,7.38
2022-12-19T18:45:23.156Z,7.30
2022-12-19T18:50:33.693Z,7.30
2022-12-19T18:53:21.815Z,7.47
2022-12-19T18:56:00.111Z,7.47
2022-12-19T18:58:36.173Z,7.00
2022-12-19T19:01:13.676Z,7.00
2022-12-19T19:03:53.234Z,7.20
2022-12-19T19:06:38.423Z,7.28
2022-12-19T19:09:20.348Z,7.22
2022-12-19T19:12:13.704Z,7.32
2022-12-19T19:14:43.514Z,6.40
2022-12-19T19:17:30.552Z,7.50
2022-12-19T19:20:04.202Z,6.70
2022-12-19T19:25:10.630Z,6.93
2022-12-19T19:30:18.368Z,6.97
2022-12-19T19:32:59.174Z,6.90
2022-12-19T19:35:38.078Z,6.90
2022-12-19T19:38:14.836Z,7.05
2022-12-19T19:40:51.170Z,6.82
2022-12-19T19:43:23.252Z,7.30
2022-12-19T19:46:06.826Z,6.85
2022-12-19T19:48:42.656Z,7.18
2022-12-19T19:51:19.821Z,7.15
2022-12-19T19:54:01.802Z,6.57
2022-12-19T19:56:40.666Z,6.97
2022-12-19T19:59:18.713Z,7.03
2022-12-19T20:01:56.799Z,7.13
2022-12-19T20:04:38.376Z,6.60
2022-12-19T20:07:17.675Z,7.05
2022-12-19T20:09:54.662Z,6.97
2022-12-19T20:12:24.763Z,7.00
2022-12-19T20:15:03.136Z,7.10
2022-12-19T20:17:41.594Z,6.72
2022-12-19T20:20:19.660Z,6.60
2022-12-19T20:22:54.964Z,7.53
2022-12-19T20:25:34.599Z,6.85
2022-12-19T20:28:19.198Z,7.45
2022-12-19T20:30:54.293Z,7.60
2022-12-19T20:33:26.344Z,7.40
2022-12-19T20:36:09.998Z,7.00
2022-12-19T20:38:45.740Z,7.32
2022-12-19T20:41:13.963Z,6.80
2022-12-19T20:43:53.317Z,7.72
2022-12-19T20:46:32.139Z,6.70
2022-12-19T20:49:08.317Z,7.50
2022-12-19T20:51:47.941Z,7.10
2022-12-19T20:54:24.173Z,7.32
2022-12-19T20:57:00.619Z,7.13
2022-12-19T20:59:36.718Z,6.45
2022-12-19T21:02:12.553Z,7.10
2022-12-19T21:04:48.457Z,6.70
2022-12-19T21:07:27.421Z,7.00
2022-12-19T21:09:59.862Z,7.15
2022-12-19T21:12:35.336Z,7.05
2022-12-19T21:15:08.197Z,6.93
2022-12-19T21:20:17.828Z,6.60
2022-12-19T21:22:50.656Z,7.32
2022-12-19T21:25:26.666Z,6.88
2022-12-19T21:28:00.543Z,7.10
2022-12-19T21:30:38.774Z,7.65
2022-12-19T21:33:11.679Z,6.97
2022-12-19T21:35:46.134Z,6.75
2022-12-19T21:38:23.340Z,7.32
2022-12-19T21:40:55.851Z,7.18
2022-12-19T21:43:28.657Z,7.63
2022-12-19T21:46:33.339Z,7.57
2022-12-19T21:49:08.663Z,7.32
2022-12-19T21:51:39.348Z,7.03
2022-12-19T21:54:21.130Z,7.25
2022-12-19T21:59:41.263Z,6.77
2022-12-19T22:02:20.872Z,7.68
2022-12-19T22:04:58.983Z,6.68
2022-12-19T22:07:32.127Z,7.00
2022-12-19T22:10:11.815Z,7.07
2022-12-19T22:12:47.405Z,6.65
2022-12-19T22:15:19.869Z,7.28
2022-12-19T22:17:55.829Z,7.50
2022-12-19T22:20:31.440Z,6.85
2022-12-19T22:23:09.719Z,7.50
2022-12-19T22:25:51.097Z,6.97
2022-12-19T22:28:27.434Z,7.28
2022-12-19T22:31:00.547Z,7.10
2022-12-19T22:33:35.700Z,7.10
2022-12-19T22:36:15.388Z,7.40
2022-12-19T22:39:13.352Z,7.50
2022-12-19T22:41:52.051Z,7.13
2022-12-19T22:44:30.495Z,7.10
2022-12-19T22:47:03.500Z,7.40
2022-12-19T22:49:45.929Z,7.15
2022-12-19T22:52:26.908Z,7.10
2022-12-19T22:55:08.780Z,7.10
2022-12-19T22:57:46.477Z,7.20
2022-12-19T23:00:21.972Z,7.00
2022-12-19T23:03:03.809Z,6.93
2022-12-19T23:05:40.899Z,7.55
2022-12-19T23:08:21.631Z,7.05
2022-12-19T23:10:56.473Z,7.82
2022-12-19T23:13:37.347Z,7.22
2022-12-19T23:16:13.875Z,7.30
2022-12-19T23:18:47.178Z,7.00
2022-12-19T23:21:27.161Z,7.10
2022-12-19T23:24:08.728Z,7.10
2022-12-19T23:26:42.405Z,7.30
2022-12-19T23:29:20.377Z,7.53
2022-12-19T23:31:57.891Z,7.03
2022-12-19T23:34:30.902Z,7.15
2022-12-19T23:37:11.523Z,7.75
2022-12-19T23:39:52.017Z,6.72
2022-12-19T23:42:30.596Z,7.00
2022-12-19T23:45:04.575Z,7.45
2022-12-19T23:47:42.003Z,6.88
2022-12-19T23:50:17.895Z,7.03
2022-12-19T23:52:53.792Z,7.57
2022-12-19T23:55:30.683Z,7.35
2022-12-19T23:58:11.246Z,7.35
